sensor_id;sensor_type;location;lat;lon;timestamp;temperature;humidity
35085;SHT85;21267;51.032;6.998;2023-05-10T00:01:38;13.19;98.30
35085;SHT85;21267;51.032;6.998;2023-05-10T00:04:07;13.17;98.29
35085;SHT85;21267;51.032;6.998;2023-05-10T00:06:34;13.22;98.38
35085;SHT85;21267;51.032;6.998;2023-05-10T00:09:01;13.24;98.29
35085;SHT85;21267;51.032;6.998;2023-05-10T00:11:28;13.27;98.29
35085;SHT85;21267;51.032;6.998;2023-05-10T00:13:55;13.19;98.27
35085;SHT85;21267;51.032;6.998;2023-05-10T00:16:22;13.19;98.22
35085;SHT85;21267;51.032;6.998;2023-05-10T00:18:49;13.22;98.24
35085;SHT85;21267;51.032;6.998;2023-05-10T00:21:19;13.26;98.10
35085;SHT85;21267;51.032;6.998;2023-05-10T00:23:46;13.26;98.20
35085;SHT85;21267;51.032;6.998;2023-05-10T00:26:12;13.27;98.37
35085;SHT85;21267;51.032;6.998;2023-05-10T00:28:40;13.23;98.35
35085;SHT85;21267;51.032;6.998;2023-05-10T00:31:06;13.26;98.45
35085;SHT85;21267;51.032;6.998;2023-05-10T00:33:33;13.27;98.42
35085;SHT85;21267;51.032;6.998;2023-05-10T00:36:00;13.30;98.46
35085;SHT85;21267;51.032;6.998;2023-05-10T00:38:27;13.26;98.50
35085;SHT85;21267;51.032;6.998;2023-05-10T00:40:54;13.26;98.44
35085;SHT85;21267;51.032;6.998;2023-05-10T00:43:21;13.34;98.54
35085;SHT85;21267;51.032;6.998;2023-05-10T00:45:48;13.26;98.49
35085;SHT85;21267;51.032;6.998;2023-05-10T00:48:15;13.24;98.70
35085;SHT85;21267;51.032;6.998;2023-05-10T00:50:42;13.28;98.59
35085;SHT85;21267;51.032;6.998;2023-05-10T00:53:09;13.30;98.47
35085;SHT85;21267;51.032;6.998;2023-05-10T00:55:37;13.24;98.42
35085;SHT85;21267;51.032;6.998;2023-05-10T00:58:04;13.30;98.41
35085;SHT85;21267;51.032;6.998;2023-05-10T01:00:32;13.30;98.39
35085;SHT85;21267;51.032;6.998;2023-05-10T01:02:59;13.27;98.29
35085;SHT85;21267;51.032;6.998;2023-05-10T01:05:27;13.24;98.42
35085;SHT85;21267;51.032;6.998;2023-05-10T01:07:54;13.19;98.61
35085;SHT85;21267;51.032;6.998;2023-05-10T01:10:21;13.27;98.68
35085;SHT85;21267;51.032;6.998;2023-05-10T01:12:48;13.27;98.52
35085;SHT85;21267;51.032;6.998;2023-05-10T01:15:15;13.24;98.54
35085;SHT85;21267;51.032;6.998;2023-05-10T01:17:44;13.31;98.57
35085;SHT85;21267;51.032;6.998;2023-05-10T01:20:14;13.30;98.52
35085;SHT85;21267;51.032;6.998;2023-05-10T01:26:00;13.27;98.49
35085;SHT85;21267;51.032;6.998;2023-05-10T01:29:08;13.28;98.51
35085;SHT85;21267;51.032;6.998;2023-05-10T01:34:35;13.36;98.44
35085;SHT85;21267;51.032;6.998;2023-05-10T01:37:09;13.36;98.30
35085;SHT85;21267;51.032;6.998;2023-05-10T01:39:48;13.34;98.19
35085;SHT85;21267;51.032;6.998;2023-05-10T01:42:25;13.34;97.91
35085;SHT85;21267;51.032;6.998;2023-05-10T01:47:46;13.31;97.21
35085;SHT85;21267;51.032;6.998;2023-05-10T01:50:18;13.31;97.55
35085;SHT85;21267;51.032;6.998;2023-05-10T01:52:58;13.26;97.52
35085;SHT85;21267;51.032;6.998;2023-05-10T01:55:30;13.19;97.86
35085;SHT85;21267;51.032;6.998;2023-05-10T01:58:05;13.15;97.93
35085;SHT85;21267;51.032;6.998;2023-05-10T02:00:34;13.10;97.76
35085;SHT85;21267;51.032;6.998;2023-05-10T02:03:06;13.09;97.90
35085;SHT85;21267;51.032;6.998;2023-05-10T02:05:41;13.13;97.75
35085;SHT85;21267;51.032;6.998;2023-05-10T02:08:09;13.12;97.83
35085;SHT85;21267;51.032;6.998;2023-05-10T02:10:37;13.16;98.09
35085;SHT85;21267;51.032;6.998;2023-05-10T02:13:07;13.13;98.10
35085;SHT85;21267;51.032;6.998;2023-05-10T02:15:36;13.17;98.17
35085;SHT85;21267;51.032;6.998;2023-05-10T02:18:03;13.07;98.07
35085;SHT85;21267;51.032;6.998;2023-05-10T02:20:32;13.13;98.07
35085;SHT85;21267;51.032;6.998;2023-05-10T02:23:01;13.07;97.86
35085;SHT85;21267;51.032;6.998;2023-05-10T02:25:29;12.92;97.34
35085;SHT85;21267;51.032;6.998;2023-05-10T02:27:56;13.00;97.36
35085;SHT85;21267;51.032;6.998;2023-05-10T02:30:24;12.99;97.23
35085;SHT85;21267;51.032;6.998;2023-05-10T02:32:51;13.02;97.38
35085;SHT85;21267;51.032;6.998;2023-05-10T02:35:19;12.99;97.24
35085;SHT85;21267;51.032;6.998;2023-05-10T02:37:47;12.97;96.97
35085;SHT85;21267;51.032;6.998;2023-05-10T02:40:15;12.92;97.12
35085;SHT85;21267;51.032;6.998;2023-05-10T02:42:45;12.99;97.38
35085;SHT85;21267;51.032;6.998;2023-05-10T02:45:19;12.97;97.50
35085;SHT85;21267;51.032;6.998;2023-05-10T02:47:47;12.97;97.61
35085;SHT85;21267;51.032;6.998;2023-05-10T02:50:14;12.97;97.43
35085;SHT85;21267;51.032;6.998;2023-05-10T02:52:50;13.00;97.61
35085;SHT85;21267;51.032;6.998;2023-05-10T02:55:26;13.07;97.64
35085;SHT85;21267;51.032;6.998;2023-05-10T02:58:00;13.10;97.84
35085;SHT85;21267;51.032;6.998;2023-05-10T03:00:28;13.12;97.81
35085;SHT85;21267;51.032;6.998;2023-05-10T03:02:55;13.20;97.48
35085;SHT85;21267;51.032;6.998;2023-05-10T03:05:22;13.10;97.49
35085;SHT85;21267;51.032;6.998;2023-05-10T03:07:50;13.19;97.57
35085;SHT85;21267;51.032;6.998;2023-05-10T03:10:18;13.19;97.79
35085;SHT85;21267;51.032;6.998;2023-05-10T03:13:21;13.16;97.67
35085;SHT85;21267;51.032;6.998;2023-05-10T03:21:11;13.24;97.59
35085;SHT85;21267;51.032;6.998;2023-05-10T03:23:51;13.23;97.24
35085;SHT85;21267;51.032;6.998;2023-05-10T03:26:24;13.16;97.37
35085;SHT85;21267;51.032;6.998;2023-05-10T03:28:52;13.26;97.67
35085;SHT85;21267;51.032;6.998;2023-05-10T03:31:20;13.24;97.81
35085;SHT85;21267;51.032;6.998;2023-05-10T03:33:48;13.33;97.36
35085;SHT85;21267;51.032;6.998;2023-05-10T03:36:16;13.20;97.35
35085;SHT85;21267;51.032;6.998;2023-05-10T03:38:43;13.24;97.55
35085;SHT85;21267;51.032;6.998;2023-05-10T03:41:10;13.27;97.47
35085;SHT85;21267;51.032;6.998;2023-05-10T03:43:37;13.27;97.74
35085;SHT85;21267;51.032;6.998;2023-05-10T03:46:04;13.26;97.76
35085;SHT85;21267;51.032;6.998;2023-05-10T03:48:34;13.27;97.20
35085;SHT85;21267;51.032;6.998;2023-05-10T03:51:01;13.22;96.98
35085;SHT85;21267;51.032;6.998;2023-05-10T03:53:28;13.30;97.02
35085;SHT85;21267;51.032;6.998;2023-05-10T03:55:55;13.31;96.96
35085;SHT85;21267;51.032;6.998;2023-05-10T03:58:22;13.36;97.36
35085;SHT85;21267;51.032;6.998;2023-05-10T04:00:48;13.38;97.39
35085;SHT85;21267;51.032;6.998;2023-05-10T04:03:15;13.34;97.21
35085;SHT85;21267;51.032;6.998;2023-05-10T04:05:43;13.44;97.09
35085;SHT85;21267;51.032;6.998;2023-05-10T04:08:09;13.36;97.08
35085;SHT85;21267;51.032;6.998;2023-05-10T04:10:36;13.31;97.04
35085;SHT85;21267;51.032;6.998;2023-05-10T04:13:03;13.44;96.91
35085;SHT85;21267;51.032;6.998;2023-05-10T04:15:30;13.47;96.97
35085;SHT85;21267;51.032;6.998;2023-05-10T04:17:57;13.43;97.24
35085;SHT85;21267;51.032;6.998;2023-05-10T04:20:24;13.53;96.97
35085;SHT85;21267;51.032;6.998;2023-05-10T04:22:51;13.53;96.42
35085;SHT85;21267;51.032;6.998;2023-05-10T04:25:18;13.53;96.49
35085;SHT85;21267;51.032;6.998;2023-05-10T04:27:44;13.51;96.29
35085;SHT85;21267;51.032;6.998;2023-05-10T04:30:11;13.58;96.34
35085;SHT85;21267;51.032;6.998;2023-05-10T04:32:38;13.61;96.32
35085;SHT85;21267;51.032;6.998;2023-05-10T04:35:05;13.58;96.40
35085;SHT85;21267;51.032;6.998;2023-05-10T04:37:33;13.62;96.43
35085;SHT85;21267;51.032;6.998;2023-05-10T04:40:03;13.51;96.39
35085;SHT85;21267;51.032;6.998;2023-05-10T04:42:30;13.58;96.44
35085;SHT85;21267;51.032;6.998;2023-05-10T04:44:57;13.53;96.45
35085;SHT85;21267;51.032;6.998;2023-05-10T04:47:24;13.58;96.31
35085;SHT85;21267;51.032;6.998;2023-05-10T04:49:51;13.57;95.84
35085;SHT85;21267;51.032;6.998;2023-05-10T04:52:18;13.59;95.90
35085;SHT85;21267;51.032;6.998;2023-05-10T04:54:45;13.61;95.43
35085;SHT85;21267;51.032;6.998;2023-05-10T04:57:12;13.62;95.51
35085;SHT85;21267;51.032;6.998;2023-05-10T04:59:39;13.62;95.71
35085;SHT85;21267;51.032;6.998;2023-05-10T05:02:05;13.69;95.67
35085;SHT85;21267;51.032;6.998;2023-05-10T05:04:36;13.62;95.63
35085;SHT85;21267;51.032;6.998;2023-05-10T05:07:03;13.61;95.73
35085;SHT85;21267;51.032;6.998;2023-05-10T05:09:29;13.58;95.88
35085;SHT85;21267;51.032;6.998;2023-05-10T05:11:58;13.59;95.69
35085;SHT85;21267;51.032;6.998;2023-05-10T05:14:25;13.65;95.26
35085;SHT85;21267;51.032;6.998;2023-05-10T05:16:55;13.64;95.88
35085;SHT85;21267;51.032;6.998;2023-05-10T05:19:23;13.71;95.47
35085;SHT85;21267;51.032;6.998;2023-05-10T05:21:50;13.64;95.50
35085;SHT85;21267;51.032;6.998;2023-05-10T05:24:16;13.77;95.41
35085;SHT85;21267;51.032;6.998;2023-05-10T05:26:43;13.67;95.08
35085;SHT85;21267;51.032;6.998;2023-05-10T05:29:10;13.67;94.90
35085;SHT85;21267;51.032;6.998;2023-05-10T05:31:37;13.67;94.14
35085;SHT85;21267;51.032;6.998;2023-05-10T05:34:04;13.67;94.11
35085;SHT85;21267;51.032;6.998;2023-05-10T05:36:31;13.68;94.50
35085;SHT85;21267;51.032;6.998;2023-05-10T05:38:58;13.68;94.56
35085;SHT85;21267;51.032;6.998;2023-05-10T05:41:25;13.72;94.72
35085;SHT85;21267;51.032;6.998;2023-05-10T05:43:52;13.84;94.72
35085;SHT85;21267;51.032;6.998;2023-05-10T05:46:19;13.88;94.88
35085;SHT85;21267;51.032;6.998;2023-05-10T05:48:46;13.68;93.86
35085;SHT85;21267;51.032;6.998;2023-05-10T05:51:13;13.69;94.02
35085;SHT85;21267;51.032;6.998;2023-05-10T05:53:39;13.65;93.39
35085;SHT85;21267;51.032;6.998;2023-05-10T05:56:06;13.67;93.58
35085;SHT85;21267;51.032;6.998;2023-05-10T05:58:34;13.72;93.78
35085;SHT85;21267;51.032;6.998;2023-05-10T06:01:01;13.81;93.89
35085;SHT85;21267;51.032;6.998;2023-05-10T06:03:28;13.75;92.94
35085;SHT85;21267;51.032;6.998;2023-05-10T06:05:55;13.69;93.12
35085;SHT85;21267;51.032;6.998;2023-05-10T06:08:22;13.71;92.77
35085;SHT85;21267;51.032;6.998;2023-05-10T06:10:49;13.75;93.15
35085;SHT85;21267;51.032;6.998;2023-05-10T06:13:16;13.77;92.88
35085;SHT85;21267;51.032;6.998;2023-05-10T06:15:42;13.68;92.58
35085;SHT85;21267;51.032;6.998;2023-05-10T06:18:09;13.75;92.95
35085;SHT85;21267;51.032;6.998;2023-05-10T06:20:36;13.71;92.34
35085;SHT85;21267;51.032;6.998;2023-05-10T06:23:03;13.74;92.53
35085;SHT85;21267;51.032;6.998;2023-05-10T06:25:30;13.74;93.05
35085;SHT85;21267;51.032;6.998;2023-05-10T06:27:56;13.88;93.53
35085;SHT85;21267;51.032;6.998;2023-05-10T06:33:48;13.72;93.52
35085;SHT85;21267;51.032;6.998;2023-05-10T06:36:15;13.71;93.47
35085;SHT85;21267;51.032;6.998;2023-05-10T06:38:42;13.65;93.64
35085;SHT85;21267;51.032;6.998;2023-05-10T06:41:09;13.65;93.02
35085;SHT85;21267;51.032;6.998;2023-05-10T06:43:36;13.67;92.82
35085;SHT85;21267;51.032;6.998;2023-05-10T06:46:06;13.62;92.98
35085;SHT85;21267;51.032;6.998;2023-05-10T06:48:33;13.67;93.11
35085;SHT85;21267;51.032;6.998;2023-05-10T06:51:00;13.55;93.63
35085;SHT85;21267;51.032;6.998;2023-05-10T06:53:27;13.54;93.67
35085;SHT85;21267;51.032;6.998;2023-05-10T06:55:54;13.51;94.40
35085;SHT85;21267;51.032;6.998;2023-05-10T06:58:21;13.50;94.47
35085;SHT85;21267;51.032;6.998;2023-05-10T07:00:47;13.50;94.55
35085;SHT85;21267;51.032;6.998;2023-05-10T07:03:14;13.40;94.90
35085;SHT85;21267;51.032;6.998;2023-05-10T07:05:41;13.38;95.32
35085;SHT85;21267;51.032;6.998;2023-05-10T07:08:08;13.36;95.86
35085;SHT85;21267;51.032;6.998;2023-05-10T07:10:36;13.40;96.00
35085;SHT85;21267;51.032;6.998;2023-05-10T07:13:02;13.34;96.12
35085;SHT85;21267;51.032;6.998;2023-05-10T07:15:30;13.34;96.17
35085;SHT85;21267;51.032;6.998;2023-05-10T07:17:57;13.46;96.38
35085;SHT85;21267;51.032;6.998;2023-05-10T07:20:24;13.46;96.48
35085;SHT85;21267;51.032;6.998;2023-05-10T07:22:51;13.47;96.37
35085;SHT85;21267;51.032;6.998;2023-05-10T07:25:18;13.47;96.49
35085;SHT85;21267;51.032;6.998;2023-05-10T07:27:45;13.53;96.11
35085;SHT85;21267;51.032;6.998;2023-05-10T07:30:12;13.44;96.29
35085;SHT85;21267;51.032;6.998;2023-05-10T07:32:42;13.61;96.51
35085;SHT85;21267;51.032;6.998;2023-05-10T07:35:09;13.65;96.39
35085;SHT85;21267;51.032;6.998;2023-05-10T07:37:36;13.61;96.30
35085;SHT85;21267;51.032;6.998;2023-05-10T07:40:03;13.69;96.45
35085;SHT85;21267;51.032;6.998;2023-05-10T07:42:30;13.71;96.16
35085;SHT85;21267;51.032;6.998;2023-05-10T07:44:57;13.72;95.78
35085;SHT85;21267;51.032;6.998;2023-05-10T07:47:24;13.84;95.82
35085;SHT85;21267;51.032;6.998;2023-05-10T07:49:51;13.86;95.87
35085;SHT85;21267;51.032;6.998;2023-05-10T07:52:18;13.85;95.61
35085;SHT85;21267;51.032;6.998;2023-05-10T07:54:47;14.08;95.77
35085;SHT85;21267;51.032;6.998;2023-05-10T07:57:15;14.10;95.28
35085;SHT85;21267;51.032;6.998;2023-05-10T07:59:44;14.33;95.57
35085;SHT85;21267;51.032;6.998;2023-05-10T08:02:11;14.34;95.11
35085;SHT85;21267;51.032;6.998;2023-05-10T08:04:38;14.30;94.96
35085;SHT85;21267;51.032;6.998;2023-05-10T08:07:05;14.29;94.82
35085;SHT85;21267;51.032;6.998;2023-05-10T08:09:32;14.34;94.65
35085;SHT85;21267;51.032;6.998;2023-05-10T08:11:59;14.33;94.15
35085;SHT85;21267;51.032;6.998;2023-05-10T08:14:28;14.22;93.44
35085;SHT85;21267;51.032;6.998;2023-05-10T08:16:55;14.23;93.22
35085;SHT85;21267;51.032;6.998;2023-05-10T08:19:22;14.12;94.26
35085;SHT85;21267;51.032;6.998;2023-05-10T08:21:50;14.25;94.29
35085;SHT85;21267;51.032;6.998;2023-05-10T08:24:17;14.13;93.63
35085;SHT85;21267;51.032;6.998;2023-05-10T08:26:44;14.08;93.74
35085;SHT85;21267;51.032;6.998;2023-05-10T08:29:11;14.05;93.98
35085;SHT85;21267;51.032;6.998;2023-05-10T08:31:38;14.04;94.05
35085;SHT85;21267;51.032;6.998;2023-05-10T08:34:05;13.98;93.72
35085;SHT85;21267;51.032;6.998;2023-05-10T08:36:32;13.98;94.20
35085;SHT85;21267;51.032;6.998;2023-05-10T08:38:58;13.95;93.94
35085;SHT85;21267;51.032;6.998;2023-05-10T08:41:26;14.12;93.71
35085;SHT85;21267;51.032;6.998;2023-05-10T08:43:53;14.17;93.72
35085;SHT85;21267;51.032;6.998;2023-05-10T08:46:22;14.26;93.70
35085;SHT85;21267;51.032;6.998;2023-05-10T08:48:50;14.25;93.51
35085;SHT85;21267;51.032;6.998;2023-05-10T08:51:19;14.17;93.26
35085;SHT85;21267;51.032;6.998;2023-05-10T08:53:48;14.12;93.73
35085;SHT85;21267;51.032;6.998;2023-05-10T08:56:15;14.02;93.82
35085;SHT85;21267;51.032;6.998;2023-05-10T08:58:44;14.02;94.24
35085;SHT85;21267;51.032;6.998;2023-05-10T09:01:12;13.98;94.11
35085;SHT85;21267;51.032;6.998;2023-05-10T09:03:40;14.12;94.24
35085;SHT85;21267;51.032;6.998;2023-05-10T09:06:08;14.32;93.93
35085;SHT85;21267;51.032;6.998;2023-05-10T09:08:36;14.36;92.88
35085;SHT85;21267;51.032;6.998;2023-05-10T09:11:03;14.40;92.72
35085;SHT85;21267;51.032;6.998;2023-05-10T09:13:30;14.68;92.81
35085;SHT85;21267;51.032;6.998;2023-05-10T09:15:58;14.77;92.78
35085;SHT85;21267;51.032;6.998;2023-05-10T09:18:39;14.87;91.96
35085;SHT85;21267;51.032;6.998;2023-05-10T09:21:05;14.83;91.79
35085;SHT85;21267;51.032;6.998;2023-05-10T09:23:32;14.85;91.38
35085;SHT85;21267;51.032;6.998;2023-05-10T09:26:06;14.85;90.52
35085;SHT85;21267;51.032;6.998;2023-05-10T09:28:34;14.80;90.43
35085;SHT85;21267;51.032;6.998;2023-05-10T09:31:04;15.14;90.71
35085;SHT85;21267;51.032;6.998;2023-05-10T09:33:43;15.19;90.75
35085;SHT85;21267;51.032;6.998;2023-05-10T09:36:11;15.22;90.75
35085;SHT85;21267;51.032;6.998;2023-05-10T09:38:50;15.06;89.98
35085;SHT85;21267;51.032;6.998;2023-05-10T09:41:22;15.16;89.94
35085;SHT85;21267;51.032;6.998;2023-05-10T09:43:55;15.09;90.47
35085;SHT85;21267;51.032;6.998;2023-05-10T09:46:23;14.94;90.95
35085;SHT85;21267;51.032;6.998;2023-05-10T09:48:50;14.98;91.69
35085;SHT85;21267;51.032;6.998;2023-05-10T09:51:24;14.63;90.54
35085;SHT85;21267;51.032;6.998;2023-05-10T09:54:09;14.75;91.16
35085;SHT85;21267;51.032;6.998;2023-05-10T09:56:37;14.59;90.55
35085;SHT85;21267;51.032;6.998;2023-05-10T09:59:08;14.50;90.88
35085;SHT85;21267;51.032;6.998;2023-05-10T10:01:36;14.40;90.80
35085;SHT85;21267;51.032;6.998;2023-05-10T10:04:08;14.52;91.36
35085;SHT85;21267;51.032;6.998;2023-05-10T10:06:36;14.54;90.50
35085;SHT85;21267;51.032;6.998;2023-05-10T10:09:07;14.83;90.16
35085;SHT85;21267;51.032;6.998;2023-05-10T10:11:35;14.92;89.90
35085;SHT85;21267;51.032;6.998;2023-05-10T10:14:03;14.95;89.73
35085;SHT85;21267;51.032;6.998;2023-05-10T10:16:31;15.08;89.71
35085;SHT85;21267;51.032;6.998;2023-05-10T10:18:58;14.77;89.06
35085;SHT85;21267;51.032;6.998;2023-05-10T10:21:26;14.83;89.91
35085;SHT85;21267;51.032;6.998;2023-05-10T10:23:54;14.88;90.27
35085;SHT85;21267;51.032;6.998;2023-05-10T10:26:20;15.05;90.01
35085;SHT85;21267;51.032;6.998;2023-05-10T10:31:48;15.11;88.48
35085;SHT85;21267;51.032;6.998;2023-05-10T10:34:27;15.26;88.11
35085;SHT85;21267;51.032;6.998;2023-05-10T10:36:58;15.40;87.84
35085;SHT85;21267;51.032;6.998;2023-05-10T10:39:30;15.64;87.58
35085;SHT85;21267;51.032;6.998;2023-05-10T10:41:58;16.13;87.25
35085;SHT85;21267;51.032;6.998;2023-05-10T10:49:48;15.91;86.19
35085;SHT85;21267;51.032;6.998;2023-05-10T10:57:28;15.69;85.86
35085;SHT85;21267;51.032;6.998;2023-05-10T11:02:50;16.31;85.30
35085;SHT85;21267;51.032;6.998;2023-05-10T11:05:25;16.21;82.50
35085;SHT85;21267;51.032;6.998;2023-05-10T11:08:01;16.13;83.31
35085;SHT85;21267;51.032;6.998;2023-05-10T11:10:33;16.53;82.96
35085;SHT85;21267;51.032;6.998;2023-05-10T11:13:01;16.99;82.38
35085;SHT85;21267;51.032;6.998;2023-05-10T11:15:34;17.42;79.77
35085;SHT85;21267;51.032;6.998;2023-05-10T11:18:23;16.92;79.97
35085;SHT85;21267;51.032;6.998;2023-05-10T11:21:00;16.26;81.00
35085;SHT85;21267;51.032;6.998;2023-05-10T11:26:14;15.93;82.38
35085;SHT85;21267;51.032;6.998;2023-05-10T11:28:42;16.00;82.77
35085;SHT85;21267;51.032;6.998;2023-05-10T11:31:09;15.76;82.26
35085;SHT85;21267;51.032;6.998;2023-05-10T11:33:53;15.77;83.27
35085;SHT85;21267;51.032;6.998;2023-05-10T11:36:24;15.63;84.22
35085;SHT85;21267;51.032;6.998;2023-05-10T11:38:52;15.69;84.39
35085;SHT85;21267;51.032;6.998;2023-05-10T11:41:21;15.62;84.65
35085;SHT85;21267;51.032;6.998;2023-05-10T11:43:55;15.86;84.19
35085;SHT85;21267;51.032;6.998;2023-05-10T11:46:23;15.97;83.63
35085;SHT85;21267;51.032;6.998;2023-05-10T11:48:53;16.28;82.60
35085;SHT85;21267;51.032;6.998;2023-05-10T11:51:22;16.32;82.15
35085;SHT85;21267;51.032;6.998;2023-05-10T11:53:54;16.51;81.91
35085;SHT85;21267;51.032;6.998;2023-05-10T11:56:22;16.73;81.50
35085;SHT85;21267;51.032;6.998;2023-05-10T11:58:55;17.42;80.17
35085;SHT85;21267;51.032;6.998;2023-05-10T12:01:26;17.93;76.42
35085;SHT85;21267;51.032;6.998;2023-05-10T12:03:56;17.99;76.69
35085;SHT85;21267;51.032;6.998;2023-05-10T12:06:30;18.75;74.86
35085;SHT85;21267;51.032;6.998;2023-05-10T12:08:58;18.63;75.06
35085;SHT85;21267;51.032;6.998;2023-05-10T12:11:27;18.70;74.32
35085;SHT85;21267;51.032;6.998;2023-05-10T12:13:55;18.09;74.72
35085;SHT85;21267;51.032;6.998;2023-05-10T12:16:25;18.30;74.64
35085;SHT85;21267;51.032;6.998;2023-05-10T12:19:00;18.54;73.82
35085;SHT85;21267;51.032;6.998;2023-05-10T12:21:30;18.38;73.82
35085;SHT85;21267;51.032;6.998;2023-05-10T12:24:02;19.02;72.61
35085;SHT85;21267;51.032;6.998;2023-05-10T12:26:37;19.39;72.55
35085;SHT85;21267;51.032;6.998;2023-05-10T12:29:18;19.38;71.52
35085;SHT85;21267;51.032;6.998;2023-05-10T12:31:56;18.87;71.63
35085;SHT85;21267;51.032;6.998;2023-05-10T12:34:30;18.82;72.09
35085;SHT85;21267;51.032;6.998;2023-05-10T12:36:58;18.61;71.99
35085;SHT85;21267;51.032;6.998;2023-05-10T12:39:44;19.43;69.71
35085;SHT85;21267;51.032;6.998;2023-05-10T12:42:11;18.82;68.98
35085;SHT85;21267;51.032;6.998;2023-05-10T12:44:38;19.23;68.72
35085;SHT85;21267;51.032;6.998;2023-05-10T12:47:05;19.23;69.23
35085;SHT85;21267;51.032;6.998;2023-05-10T12:49:32;19.39;69.13
35085;SHT85;21267;51.032;6.998;2023-05-10T12:52:00;19.26;70.19
35085;SHT85;21267;51.032;6.998;2023-05-10T12:54:27;19.60;69.59
35085;SHT85;21267;51.032;6.998;2023-05-10T12:56:54;19.06;69.52
35085;SHT85;21267;51.032;6.998;2023-05-10T12:59:21;19.50;69.05
35085;SHT85;21267;51.032;6.998;2023-05-10T13:01:49;19.63;68.84
35085;SHT85;21267;51.032;6.998;2023-05-10T13:04:16;19.09;68.18
35085;SHT85;21267;51.032;6.998;2023-05-10T13:06:43;19.13;68.92
35085;SHT85;21267;51.032;6.998;2023-05-10T13:09:10;19.22;69.69
35085;SHT85;21267;51.032;6.998;2023-05-10T13:11:37;18.63;69.83
35085;SHT85;21267;51.032;6.998;2023-05-10T13:14:04;18.52;70.96
35085;SHT85;21267;51.032;6.998;2023-05-10T13:16:31;18.55;70.11
35085;SHT85;21267;51.032;6.998;2023-05-10T13:18:58;19.12;68.79
35085;SHT85;21267;51.032;6.998;2023-05-10T13:21:25;19.23;69.12
35085;SHT85;21267;51.032;6.998;2023-05-10T13:23:53;18.87;69.19
35085;SHT85;21267;51.032;6.998;2023-05-10T13:26:19;19.63;68.19
35085;SHT85;21267;51.032;6.998;2023-05-10T13:28:46;19.60;67.53
35085;SHT85;21267;51.032;6.998;2023-05-10T13:31:15;19.90;67.24
35085;SHT85;21267;51.032;6.998;2023-05-10T13:33:42;19.66;67.79
35085;SHT85;21267;51.032;6.998;2023-05-10T13:36:08;19.56;68.15
35085;SHT85;21267;51.032;6.998;2023-05-10T13:38:36;19.32;67.74
35085;SHT85;21267;51.032;6.998;2023-05-10T13:41:03;19.38;66.80
35085;SHT85;21267;51.032;6.998;2023-05-10T13:43:30;19.82;66.64
35085;SHT85;21267;51.032;6.998;2023-05-10T13:45:57;19.94;65.86
35085;SHT85;21267;51.032;6.998;2023-05-10T13:48:24;19.67;66.48
35085;SHT85;21267;51.032;6.998;2023-05-10T13:50:51;19.38;67.94
35085;SHT85;21267;51.032;6.998;2023-05-10T13:53:17;19.33;68.56
35085;SHT85;21267;51.032;6.998;2023-05-10T13:55:45;20.08;66.25
35085;SHT85;21267;51.032;6.998;2023-05-10T13:58:11;19.46;67.28
35085;SHT85;21267;51.032;6.998;2023-05-10T14:00:38;18.87;69.16
35085;SHT85;21267;51.032;6.998;2023-05-10T14:03:05;18.63;69.07
35085;SHT85;21267;51.032;6.998;2023-05-10T14:05:33;18.78;69.03
35085;SHT85;21267;51.032;6.998;2023-05-10T14:08:00;18.99;67.92
35085;SHT85;21267;51.032;6.998;2023-05-10T14:10:28;19.08;67.05
35085;SHT85;21267;51.032;6.998;2023-05-10T14:12:54;18.87;68.76
35085;SHT85;21267;51.032;6.998;2023-05-10T14:15:22;19.08;68.89
35085;SHT85;21267;51.032;6.998;2023-05-10T14:17:49;19.57;68.98
35085;SHT85;21267;51.032;6.998;2023-05-10T14:20:16;19.16;68.62
35085;SHT85;21267;51.032;6.998;2023-05-10T14:22:43;19.53;68.08
35085;SHT85;21267;51.032;6.998;2023-05-10T14:25:10;19.35;68.52
35085;SHT85;21267;51.032;6.998;2023-05-10T14:27:37;19.61;67.99
35085;SHT85;21267;51.032;6.998;2023-05-10T14:30:06;20.09;67.59
35085;SHT85;21267;51.032;6.998;2023-05-10T14:32:34;20.05;67.67
35085;SHT85;21267;51.032;6.998;2023-05-10T14:35:03;19.53;70.51
35085;SHT85;21267;51.032;6.998;2023-05-10T14:37:30;19.16;72.03
35085;SHT85;21267;51.032;6.998;2023-05-10T14:39:57;19.22;70.81
35085;SHT85;21267;51.032;6.998;2023-05-10T14:42:24;18.94;72.39
35085;SHT85;21267;51.032;6.998;2023-05-10T14:44:51;18.20;75.30
35085;SHT85;21267;51.032;6.998;2023-05-10T14:47:18;18.38;74.62
35085;SHT85;21267;51.032;6.998;2023-05-10T14:49:45;18.34;75.07
35085;SHT85;21267;51.032;6.998;2023-05-10T14:52:11;18.38;74.26
35085;SHT85;21267;51.032;6.998;2023-05-10T14:54:38;18.37;74.69
35085;SHT85;21267;51.032;6.998;2023-05-10T14:57:06;18.47;74.88
35085;SHT85;21267;51.032;6.998;2023-05-10T14:59:33;18.23;74.23
35085;SHT85;21267;51.032;6.998;2023-05-10T15:02:01;18.20;74.74
35085;SHT85;21267;51.032;6.998;2023-05-10T15:04:28;17.85;75.31
35085;SHT85;21267;51.032;6.998;2023-05-10T15:06:56;18.09;75.38
35085;SHT85;21267;51.032;6.998;2023-05-10T15:09:25;17.78;76.11
35085;SHT85;21267;51.032;6.998;2023-05-10T15:11:54;17.79;75.94
35085;SHT85;21267;51.032;6.998;2023-05-10T15:14:22;17.65;76.10
35085;SHT85;21267;51.032;6.998;2023-05-10T15:16:48;17.61;75.85
35085;SHT85;21267;51.032;6.998;2023-05-10T15:19:15;17.58;75.77
35085;SHT85;21267;51.032;6.998;2023-05-10T15:21:42;17.50;76.23
35085;SHT85;21267;51.032;6.998;2023-05-10T15:24:11;17.57;76.33
35085;SHT85;21267;51.032;6.998;2023-05-10T15:26:37;17.59;75.74
35085;SHT85;21267;51.032;6.998;2023-05-10T15:29:04;17.31;77.16
35085;SHT85;21267;51.032;6.998;2023-05-10T15:31:31;17.44;77.07
35085;SHT85;21267;51.032;6.998;2023-05-10T15:33:58;17.63;77.12
35085;SHT85;21267;51.032;6.998;2023-05-10T15:36:28;17.44;77.83
35085;SHT85;21267;51.032;6.998;2023-05-10T15:38:55;17.18;79.17
35085;SHT85;21267;51.032;6.998;2023-05-10T15:41:22;17.26;78.91
35085;SHT85;21267;51.032;6.998;2023-05-10T15:43:50;17.13;78.91
35085;SHT85;21267;51.032;6.998;2023-05-10T15:46:17;17.23;79.04
35085;SHT85;21267;51.032;6.998;2023-05-10T15:48:43;17.26;79.12
35085;SHT85;21267;51.032;6.998;2023-05-10T15:51:10;17.26;78.00
35085;SHT85;21267;51.032;6.998;2023-05-10T15:53:37;17.00;80.26
35085;SHT85;21267;51.032;6.998;2023-05-10T15:56:18;16.97;81.05
35085;SHT85;21267;51.032;6.998;2023-05-10T15:58:45;16.66;82.68
35085;SHT85;21267;51.032;6.998;2023-05-10T16:01:11;16.45;80.89
35085;SHT85;21267;51.032;6.998;2023-05-10T16:03:38;16.45;83.10
35085;SHT85;21267;51.032;6.998;2023-05-10T16:06:05;16.28;84.70
35085;SHT85;21267;51.032;6.998;2023-05-10T16:08:32;16.31;83.74
35085;SHT85;21267;51.032;6.998;2023-05-10T16:10:59;16.10;82.44
35085;SHT85;21267;51.032;6.998;2023-05-10T16:13:27;15.86;84.61
35085;SHT85;21267;51.032;6.998;2023-05-10T16:15:54;15.35;87.46